sensor_id;sensor_type;location;lat;lon;timestamp;pressure;altitude;pressure_sealevel;temperature;humidity
66385;BME280;53426;55.872;37.462;2023-04-16T00:01:14;100758.25;;;4.97;26.56
66385;BME280;53426;55.872;37.462;2023-04-16T00:04:09;100750.56;;;4.92;26.83
66385;BME280;53426;55.872;37.462;2023-04-16T00:07:57;100755.22;;;4.86;27.41
66385;BME280;53426;55.872;37.462;2023-04-16T00:18:44;100744.38;;;4.73;27.11
66385;BME280;53426;55.872;37.462;2023-04-16T00:21:10;100749.69;;;4.72;27.65
66385;BME280;53426;55.872;37.462;2023-04-16T00:23:35;100747.06;;;4.72;27.50
66385;BME280;53426;55.872;37.462;2023-04-16T00:26:02;100726.94;;;4.50;27.51
66385;BME280;53426;55.872;37.462;2023-04-16T00:28:28;100744.75;;;4.64;27.92
66385;BME280;53426;55.872;37.462;2023-04-16T00:30:54;100725.25;;;4.49;27.82
66385;BME280;53426;55.872;37.462;2023-04-16T00:33:21;100757.84;;;4.64;28.04
66385;BME280;53426;55.872;37.462;2023-04-16T00:35:49;100759.66;;;4.63;27.69
66385;BME280;53426;55.872;37.462;2023-04-16T00:38:34;100760.63;;;4.61;27.96
66385;BME280;53426;55.872;37.462;2023-04-16T00:41:01;100695.97;;;4.16;27.95
66385;BME280;53426;55.872;37.462;2023-04-16T00:43:28;100691.44;;;3.98;27.93
66385;BME280;53426;55.872;37.462;2023-04-16T00:45:57;100725.66;;;4.17;28.08
66385;BME280;53426;55.872;37.462;2023-04-16T00:48:23;100732.56;;;4.19;28.48
66385;BME280;53426;55.872;37.462;2023-04-16T00:50:52;100752.63;;;4.42;28.28
66385;BME280;53426;55.872;37.462;2023-04-16T00:53:21;100679.28;;;3.97;28.26
66385;BME280;53426;55.872;37.462;2023-04-16T00:55:47;100686.56;;;3.89;28.53
66385;BME280;53426;55.872;37.462;2023-04-16T00:58:13;100754.03;;;4.29;28.97
66385;BME280;53426;55.872;37.462;2023-04-16T01:00:39;100704.97;;;4.09;28.40
66385;BME280;53426;55.872;37.462;2023-04-16T01:03:06;100708.78;;;4.02;28.53
66385;BME280;53426;55.872;37.462;2023-04-16T01:05:32;100635.28;;;3.60;28.53
66385;BME280;53426;55.872;37.462;2023-04-16T01:07:58;100661.69;;;3.77;28.99
66385;BME280;53426;55.872;37.462;2023-04-16T01:10:27;100766.03;;;4.35;29.09
66385;BME280;53426;55.872;37.462;2023-04-16T01:12:53;100679.13;;;3.78;29.24
66385;BME280;53426;55.872;37.462;2023-04-16T01:15:19;100626.28;;;3.44;29.08
66385;BME280;53426;55.872;37.462;2023-04-16T01:17:46;100618.63;;;3.40;29.38
66385;BME280;53426;55.872;37.462;2023-04-16T01:20:12;100738.75;;;4.17;29.12
66385;BME280;53426;55.872;37.462;2023-04-16T01:22:38;100747.44;;;4.19;29.29
66385;BME280;53426;55.872;37.462;2023-04-16T01:25:04;100643.38;;;3.54;29.43
66385;BME280;53426;55.872;37.462;2023-04-16T01:27:31;100663.84;;;3.66;29.01
66385;BME280;53426;55.872;37.462;2023-04-16T01:29:57;100759.28;;;4.29;29.40
66385;BME280;53426;55.872;37.462;2023-04-16T01:32:36;100661.06;;;3.71;29.54
66385;BME280;53426;55.872;37.462;2023-04-16T01:35:02;100653.06;;;3.52;29.69
66385;BME280;53426;55.872;37.462;2023-04-16T01:37:29;100679.13;;;3.78;29.57
66385;BME280;53426;55.872;37.462;2023-04-16T01:39:55;100764.63;;;4.26;29.94
66385;BME280;53426;55.872;37.462;2023-04-16T01:42:22;100611.13;;;3.30;29.62
66385;BME280;53426;55.872;37.462;2023-04-16T01:44:55;100667.22;;;3.70;29.58
66385;BME280;53426;55.872;37.462;2023-04-16T01:47:34;100749.94;;;4.22;29.65
66385;BME280;53426;55.872;37.462;2023-04-16T01:50:07;100755.84;;;4.27;29.49
66385;BME280;53426;55.872;37.462;2023-04-16T01:52:34;100755.84;;;4.27;29.85
66385;BME280;53426;55.872;37.462;2023-04-16T01:55:03;100713.88;;;4.05;29.82
66385;BME280;53426;55.872;37.462;2023-04-16T01:57:33;100753.16;;;4.29;29.58
66385;BME280;53426;55.872;37.462;2023-04-16T02:00:28;100754.75;;;4.33;29.28
66385;BME280;53426;55.872;37.462;2023-04-16T02:03:00;100758.41;;;4.29;29.59
66385;BME280;53426;55.872;37.462;2023-04-16T02:06:25;100759.22;;;4.31;29.61
66385;BME280;53426;55.872;37.462;2023-04-16T02:09:55;100753.16;;;4.29;29.82
66385;BME280;53426;55.872;37.462;2023-04-16T02:13:17;100764.50;;;4.29;29.78
66385;BME280;53426;55.872;37.462;2023-04-16T02:15:51;100744.72;;;4.20;29.77
66385;BME280;53426;55.872;37.462;2023-04-16T02:18:58;100765.56;;;4.25;30.36
66385;BME280;53426;55.872;37.462;2023-04-16T02:21:33;100728.66;;;4.08;30.17
66385;BME280;53426;55.872;37.462;2023-04-16T02:24:33;100739.91;;;4.10;30.31
66385;BME280;53426;55.872;37.462;2023-04-16T02:27:46;100748.44;;;4.15;30.07
66385;BME280;53426;55.872;37.462;2023-04-16T02:30:34;100747.72;;;4.11;30.26
66385;BME280;53426;55.872;37.462;2023-04-16T02:33:00;100750.34;;;4.11;30.41
66385;BME280;53426;55.872;37.462;2023-04-16T02:35:34;100732.28;;;4.04;30.23
66385;BME280;53426;55.872;37.462;2023-04-16T02:38:02;100749.38;;;4.14;30.58
66385;BME280;53426;55.872;37.462;2023-04-16T02:40:29;100760.78;;;4.13;30.33
66385;BME280;53426;55.872;37.462;2023-04-16T02:42:57;100725.81;;;3.91;30.75
66385;BME280;53426;55.872;37.462;2023-04-16T02:45:23;100757.34;;;4.11;30.67
66385;BME280;53426;55.872;37.462;2023-04-16T02:47:55;100706.88;;;3.83;30.85
66385;BME280;53426;55.872;37.462;2023-04-16T02:50:30;100716.38;;;3.87;30.89
66385;BME280;53426;55.872;37.462;2023-04-16T02:52:57;100769.53;;;4.12;31.01
66385;BME280;53426;55.872;37.462;2023-04-16T02:55:27;100738.59;;;3.98;30.80
66385;BME280;53426;55.872;37.462;2023-04-16T02:57:55;100761.19;;;4.02;31.20
66385;BME280;53426;55.872;37.462;2023-04-16T03:00:27;100758.47;;;4.04;31.17
66385;BME280;53426;55.872;37.462;2023-04-16T03:02:59;100760.31;;;4.02;30.44
66385;BME280;53426;55.872;37.462;2023-04-16T03:10:21;100767.19;;;4.04;30.69
66385;BME280;53426;55.872;37.462;2023-04-16T03:13:21;100783.00;;;4.03;31.06
66385;BME280;53426;55.872;37.462;2023-04-16T03:15:59;100776.81;;;4.04;30.88
66385;BME280;53426;55.872;37.462;2023-04-16T03:18:33;100776.59;;;4.10;31.18
66385;BME280;53426;55.872;37.462;2023-04-16T03:21:00;100773.06;;;4.11;31.27
66385;BME280;53426;55.872;37.462;2023-04-16T03:23:29;100744.03;;;3.94;31.29
66385;BME280;53426;55.872;37.462;2023-04-16T03:26:20;100782.41;;;4.18;30.88
66385;BME280;53426;55.872;37.462;2023-04-16T03:28:51;100743.75;;;4.01;31.32
66385;BME280;53426;55.872;37.462;2023-04-16T03:31:18;100726.84;;;3.87;31.33
66385;BME280;53426;55.872;37.462;2023-04-16T03:33:49;100783.09;;;4.23;31.23
66385;BME280;53426;55.872;37.462;2023-04-16T03:36:19;100703.13;;;3.90;31.20
66385;BME280;53426;55.872;37.462;2023-04-16T03:38:53;100719.53;;;3.95;30.63
66385;BME280;53426;55.872;37.462;2023-04-16T03:42:06;100766.53;;;4.44;30.57
66385;BME280;53426;55.872;37.462;2023-04-16T03:45:25;100799.53;;;4.50;30.60
66385;BME280;53426;55.872;37.462;2023-04-16T03:48:08;100691.56;;;3.95;30.55
66385;BME280;53426;55.872;37.462;2023-04-16T03:50:56;100678.19;;;4.03;30.70
66385;BME280;53426;55.872;37.462;2023-04-16T03:53:34;100787.09;;;4.77;30.72
66385;BME280;53426;55.872;37.462;2023-04-16T03:56:04;100631.97;;;4.22;30.18
66385;BME280;53426;55.872;37.462;2023-04-16T03:58:34;100736.31;;;5.40;29.31
66385;BME280;53426;55.872;37.462;2023-04-16T04:01:02;100638.75;;;5.47;28.38
66385;BME280;53426;55.872;37.462;2023-04-16T04:03:46;100688.78;;;6.57;27.93
66385;BME280;53426;55.872;37.462;2023-04-16T04:06:14;100766.56;;;7.83;26.39
66385;BME280;53426;55.872;37.462;2023-04-16T04:08:41;100763.38;;;8.25;26.16
66385;BME280;53426;55.872;37.462;2023-04-16T04:11:08;100746.22;;;8.65;25.13
66385;BME280;53426;55.872;37.462;2023-04-16T04:13:34;100774.22;;;9.13;24.92
66385;BME280;53426;55.872;37.462;2023-04-16T04:16:00;100765.28;;;9.59;24.24
66385;BME280;53426;55.872;37.462;2023-04-16T04:18:27;100764.66;;;10.54;23.01
66385;BME280;53426;55.872;37.462;2023-04-16T04:20:54;100767.19;;;11.09;22.08
66385;BME280;53426;55.872;37.462;2023-04-16T04:23:23;100768.81;;;11.11;22.11
66385;BME280;53426;55.872;37.462;2023-04-16T04:25:49;100756.81;;;11.18;22.42
66385;BME280;53426;55.872;37.462;2023-04-16T04:28:15;100753.38;;;11.43;21.84
66385;BME280;53426;55.872;37.462;2023-04-16T04:30:42;100734.91;;;11.42;21.25
66385;BME280;53426;55.872;37.462;2023-04-16T04:33:09;100737.22;;;11.21;21.27
66385;BME280;53426;55.872;37.462;2023-04-16T04:35:36;100739.06;;;10.94;21.79
66385;BME280;53426;55.872;37.462;2023-04-16T04:38:03;100729.59;;;11.42;20.92
66385;BME280;53426;55.872;37.462;2023-04-16T04:40:30;100760.19;;;11.85;21.48
66385;BME280;53426;55.872;37.462;2023-04-16T04:42:56;100725.47;;;11.63;20.86
66385;BME280;53426;55.872;37.462;2023-04-16T04:45:23;100759.31;;;11.59;21.19
66385;BME280;53426;55.872;37.462;2023-04-16T04:47:51;100763.13;;;11.43;21.22
66385;BME280;53426;55.872;37.462;2023-04-16T04:50:18;100712.53;;;10.54;21.70
66385;BME280;53426;55.872;37.462;2023-04-16T04:52:44;100727.16;;;10.86;21.98
66385;BME280;53426;55.872;37.462;2023-04-16T04:55:10;100669.66;;;10.08;21.62
66385;BME280;53426;55.872;37.462;2023-04-16T04:57:37;100604.03;;;9.72;22.21
66385;BME280;53426;55.872;37.462;2023-04-16T05:00:04;100682.78;;;10.51;22.07
66385;BME280;53426;55.872;37.462;2023-04-16T05:02:39;100764.75;;;11.06;21.99
66385;BME280;53426;55.872;37.462;2023-04-16T05:05:05;100709.75;;;10.43;22.00
66385;BME280;53426;55.872;37.462;2023-04-16T05:07:32;100658.78;;;9.98;22.10
66385;BME280;53426;55.872;37.462;2023-04-16T05:09:58;100656.38;;;10.22;21.65
66385;BME280;53426;55.872;37.462;2023-04-16T05:12:30;100669.22;;;10.55;21.92
66385;BME280;53426;55.872;37.462;2023-04-16T05:14:56;100762.53;;;11.90;21.09
66385;BME280;53426;55.872;37.462;2023-04-16T05:17:25;100690.66;;;12.05;20.55
66385;BME280;53426;55.872;37.462;2023-04-16T05:23:45;100740.69;;;13.07;19.77
66385;BME280;53426;55.872;37.462;2023-04-16T05:26:14;100705.38;;;13.05;19.49
66385;BME280;53426;55.872;37.462;2023-04-16T05:28:40;100648.69;;;12.58;19.55
66385;BME280;53426;55.872;37.462;2023-04-16T05:31:06;100641.75;;;13.14;19.11
66385;BME280;53426;55.872;37.462;2023-04-16T05:33:43;100721.03;;;13.77;18.47
66385;BME280;53426;55.872;37.462;2023-04-16T05:36:08;100766.88;;;14.59;18.08
66385;BME280;53426;55.872;37.462;2023-04-16T05:38:39;100700.03;;;14.51;17.35
66385;BME280;53426;55.872;37.462;2023-04-16T05:41:05;100653.63;;;13.66;17.18
66385;BME280;53426;55.872;37.462;2023-04-16T05:43:31;100711.81;;;13.70;17.67
66385;BME280;53426;55.872;37.462;2023-04-16T05:52:11;100750.66;;;14.94;17.73
66385;BME280;53426;55.872;37.462;2023-04-16T05:58:11;100679.97;;;15.20;16.20
66385;BME280;53426;55.872;37.462;2023-04-16T06:00:39;100717.88;;;15.44;16.23
66385;BME280;53426;55.872;37.462;2023-04-16T06:03:06;100724.88;;;15.15;16.35
66385;BME280;53426;55.872;37.462;2023-04-16T06:05:43;100667.47;;;15.00;15.87
66385;BME280;53426;55.872;37.462;2023-04-16T06:08:09;100729.41;;;15.24;15.66
66385;BME280;53426;55.872;37.462;2023-04-16T06:10:38;100697.88;;;15.80;15.29
66385;BME280;53426;55.872;37.462;2023-04-16T06:13:08;100689.56;;;16.73;14.76
66385;BME280;53426;55.872;37.462;2023-04-16T06:18:35;100629.69;;;17.59;13.93
66385;BME280;53426;55.872;37.462;2023-04-16T06:21:03;100736.19;;;17.94;13.94
66385;BME280;53426;55.872;37.462;2023-04-16T06:23:59;100720.63;;;19.41;14.36
66385;BME280;53426;55.872;37.462;2023-04-16T06:26:25;100675.69;;;18.82;13.20
66385;BME280;53426;55.872;37.462;2023-04-16T06:28:52;100727.84;;;19.58;12.98
66385;BME280;53426;55.872;37.462;2023-04-16T06:31:19;100710.50;;;19.35;12.68
66385;BME280;53426;55.872;37.462;2023-04-16T06:33:52;100596.63;;;17.41;13.43
66385;BME280;53426;55.872;37.462;2023-04-16T06:36:21;100658.38;;;17.20;13.72
66385;BME280;53426;55.872;37.462;2023-04-16T06:38:57;100580.06;;;18.45;13.54
66385;BME280;53426;55.872;37.462;2023-04-16T06:41:29;100612.09;;;19.85;12.05
66385;BME280;53426;55.872;37.462;2023-04-16T06:44:21;100720.53;;;21.26;12.70
66385;BME280;53426;55.872;37.462;2023-04-16T06:50:09;100710.53;;;21.67;11.68
66385;BME280;53426;55.872;37.462;2023-04-16T06:59:18;100706.75;;;19.28;11.90
66385;BME280;53426;55.872;37.462;2023-04-16T07:01:44;100712.25;;;18.37;12.15
66385;BME280;53426;55.872;37.462;2023-04-16T07:04:11;100720.59;;;18.79;12.06
66385;BME280;53426;55.872;37.462;2023-04-16T07:06:37;100677.63;;;18.17;12.28
66385;BME280;53426;55.872;37.462;2023-04-16T07:09:05;100691.41;;;18.59;12.05
66385;BME280;53426;55.872;37.462;2023-04-16T07:12:15;100688.44;;;17.70;12.58
66385;BME280;53426;55.872;37.462;2023-04-16T07:14:48;100714.75;;;16.99;13.09
66385;BME280;53426;55.872;37.462;2023-04-16T07:17:14;100712.34;;;16.67;12.25
66385;BME280;53426;55.872;37.462;2023-04-16T07:19:40;100701.78;;;16.66;12.47
66385;BME280;53426;55.872;37.462;2023-04-16T07:22:06;100680.09;;;16.98;12.44
66385;BME280;53426;55.872;37.462;2023-04-16T07:24:32;100721.56;;;18.06;12.03
66385;BME280;53426;55.872;37.462;2023-04-16T07:26:58;100650.72;;;17.44;11.78
66385;BME280;53426;55.872;37.462;2023-04-16T07:29:24;100701.66;;;18.36;11.74
66385;BME280;53426;55.872;37.462;2023-04-16T07:31:51;100713.13;;;18.28;11.66
66385;BME280;53426;55.872;37.462;2023-04-16T07:34:17;100689.25;;;17.80;12.02
66385;BME280;53426;55.872;37.462;2023-04-16T07:36:43;100709.97;;;17.22;11.73
66385;BME280;53426;55.872;37.462;2023-04-16T07:39:11;100717.00;;;17.33;11.82
66385;BME280;53426;55.872;37.462;2023-04-16T07:41:38;100715.50;;;16.42;12.31
66385;BME280;53426;55.872;37.462;2023-04-16T07:44:05;100699.13;;;16.16;12.85
66385;BME280;53426;55.872;37.462;2023-04-16T07:46:32;100703.81;;;16.24;12.75
66385;BME280;53426;55.872;37.462;2023-04-16T07:48:58;100687.25;;;15.90;12.38
66385;BME280;53426;55.872;37.462;2023-04-16T07:51:24;100634.22;;;15.25;12.64
66385;BME280;53426;55.872;37.462;2023-04-16T07:53:51;100570.84;;;15.47;12.68
66385;BME280;53426;55.872;37.462;2023-04-16T07:56:17;100699.84;;;16.78;12.04
66385;BME280;53426;55.872;37.462;2023-04-16T07:58:43;100718.66;;;17.24;11.99
66385;BME280;53426;55.872;37.462;2023-04-16T08:01:09;100698.97;;;17.15;12.13
66385;BME280;53426;55.872;37.462;2023-04-16T08:03:35;100652.84;;;17.41;11.68
66385;BME280;53426;55.872;37.462;2023-04-16T08:06:01;100642.50;;;16.51;11.54
66385;BME280;53426;55.872;37.462;2023-04-16T08:08:27;100699.69;;;16.89;11.97
66385;BME280;53426;55.872;37.462;2023-04-16T08:10:54;100656.88;;;16.98;12.24
66385;BME280;53426;55.872;37.462;2023-04-16T08:13:22;100671.31;;;16.38;12.12
66385;BME280;53426;55.872;37.462;2023-04-16T08:15:48;100613.53;;;15.47;12.46
66385;BME280;53426;55.872;37.462;2023-04-16T08:18:14;100633.13;;;15.27;12.91
66385;BME280;53426;55.872;37.462;2023-04-16T08:20:41;100654.41;;;15.69;12.83
66385;BME280;53426;55.872;37.462;2023-04-16T08:23:08;100681.00;;;15.80;12.42
66385;BME280;53426;55.872;37.462;2023-04-16T08:25:34;100693.97;;;15.84;12.56
66385;BME280;53426;55.872;37.462;2023-04-16T08:27:59;100669.72;;;15.46;13.00
66385;BME280;53426;55.872;37.462;2023-04-16T08:30:26;100654.94;;;15.42;12.88
66385;BME280;53426;55.872;37.462;2023-04-16T08:32:51;100687.06;;;15.52;13.10
66385;BME280;53426;55.872;37.462;2023-04-16T08:35:17;100658.78;;;15.49;12.80
66385;BME280;53426;55.872;37.462;2023-04-16T08:37:43;100646.41;;;15.48;12.71
66385;BME280;53426;55.872;37.462;2023-04-16T08:40:10;100671.16;;;15.71;12.52
66385;BME280;53426;55.872;37.462;2023-04-16T08:42:44;100669.38;;;16.50;12.84
66385;BME280;53426;55.872;37.462;2023-04-16T08:45:13;100650.69;;;17.64;12.03
66385;BME280;53426;55.872;37.462;2023-04-16T08:47:44;100671.91;;;18.57;11.26
66385;BME280;53426;55.872;37.462;2023-04-16T08:50:14;100670.25;;;19.17;10.36
66385;BME280;53426;55.872;37.462;2023-04-16T08:52:45;100663.25;;;19.68;10.92
66385;BME280;53426;55.872;37.462;2023-04-16T08:55:15;100649.91;;;19.92;10.45
66385;BME280;53426;55.872;37.462;2023-04-16T08:57:47;100654.56;;;19.82;10.42
66385;BME280;53426;55.872;37.462;2023-04-16T09:00:15;100682.72;;;18.83;10.72
66385;BME280;53426;55.872;37.462;2023-04-16T09:02:42;100660.25;;;17.56;11.56
66385;BME280;53426;55.872;37.462;2023-04-16T09:05:09;100639.59;;;17.86;11.25
66385;BME280;53426;55.872;37.462;2023-04-16T09:07:36;100644.47;;;18.18;11.20
66385;BME280;53426;55.872;37.462;2023-04-16T09:10:04;100616.88;;;18.53;10.99
66385;BME280;53426;55.872;37.462;2023-04-16T09:12:31;100657.38;;;18.59;10.69
66385;BME280;53426;55.872;37.462;2023-04-16T09:14:58;100629.94;;;18.65;10.56
66385;BME280;53426;55.872;37.462;2023-04-16T09:17:33;100622.38;;;19.30;10.25
66385;BME280;53426;55.872;37.462;2023-04-16T09:20:02;100642.22;;;20.55;9.93
66385;BME280;53426;55.872;37.462;2023-04-16T09:22:31;100619.34;;;21.24;9.48
66385;BME280;53426;55.872;37.462;2023-04-16T09:24:57;100632.47;;;20.62;9.78
66385;BME280;53426;55.872;37.462;2023-04-16T09:27:24;100607.44;;;19.95;9.95
66385;BME280;53426;55.872;37.462;2023-04-16T09:29:50;100591.78;;;18.97;10.68
66385;BME280;53426;55.872;37.462;2023-04-16T09:32:16;100614.00;;;18.19;11.36
66385;BME280;53426;55.872;37.462;2023-04-16T09:35:01;100621.31;;;18.26;11.66
66385;BME280;53426;55.872;37.462;2023-04-16T09:37:30;100619.44;;;17.82;11.42
66385;BME280;53426;55.872;37.462;2023-04-16T09:40:01;100624.94;;;18.70;11.15
66385;BME280;53426;55.872;37.462;2023-04-16T09:42:32;100612.13;;;18.02;11.58
66385;BME280;53426;55.872;37.462;2023-04-16T09:44:59;100614.16;;;17.26;12.06
66385;BME280;53426;55.872;37.462;2023-04-16T09:47:38;100616.28;;;17.59;12.14
66385;BME280;53426;55.872;37.462;2023-04-16T09:50:07;100610.69;;;16.87;11.89
66385;BME280;53426;55.872;37.462;2023-04-16T09:52:37;100613.66;;;16.45;12.28
66385;BME280;53426;55.872;37.462;2023-04-16T09:55:04;100625.16;;;15.37;12.76
66385;BME280;53426;55.872;37.462;2023-04-16T09:57:31;100615.03;;;16.11;12.75
66385;BME280;53426;55.872;37.462;2023-04-16T10:00:02;100608.75;;;16.89;12.04
66385;BME280;53426;55.872;37.462;2023-04-16T10:02:31;100620.41;;;16.40;12.32
66385;BME280;53426;55.872;37.462;2023-04-16T10:05:01;100641.19;;;16.26;12.24
66385;BME280;53426;55.872;37.462;2023-04-16T10:07:36;100612.66;;;16.37;12.78
66385;BME280;53426;55.872;37.462;2023-04-16T10:10:07;100611.78;;;16.17;12.44
66385;BME280;53426;55.872;37.462;2023-04-16T10:12:33;100626.72;;;16.19;12.39
66385;BME280;53426;55.872;37.462;2023-04-16T10:15:05;100622.53;;;16.55;12.27
66385;BME280;53426;55.872;37.462;2023-04-16T10:17:34;100610.84;;;16.56;12.06
66385;BME280;53426;55.872;37.462;2023-04-16T10:20:02;100551.06;;;16.67;12.00
66385;BME280;53426;55.872;37.462;2023-04-16T10:22:29;100633.97;;;17.79;11.63
66385;BME280;53426;55.872;37.462;2023-04-16T10:24:56;100586.44;;;17.54;11.85
66385;BME280;53426;55.872;37.462;2023-04-16T10:27:23;100604.56;;;17.70;11.78
66385;BME280;53426;55.872;37.462;2023-04-16T10:29:50;100599.16;;;17.79;11.62
66385;BME280;53426;55.872;37.462;2023-04-16T10:32:24;100614.44;;;17.96;12.04
66385;BME280;53426;55.872;37.462;2023-04-16T10:34:54;100558.47;;;16.92;12.37
66385;BME280;53426;55.872;37.462;2023-04-16T10:37:28;100578.66;;;17.24;12.33
66385;BME280;53426;55.872;37.462;2023-04-16T10:39:57;100608.25;;;18.14;11.99
66385;BME280;53426;55.872;37.462;2023-04-16T10:42:24;100574.53;;;18.82;11.20
66385;BME280;53426;55.872;37.462;2023-04-16T10:44:50;100586.34;;;19.41;11.19
66385;BME280;53426;55.872;37.462;2023-04-16T10:47:16;100611.91;;;20.37;10.48
66385;BME280;53426;55.872;37.462;2023-04-16T10:49:49;100580.34;;;20.55;10.85
66385;BME280;53426;55.872;37.462;2023-04-16T10:52:16;100589.59;;;20.61;10.69
66385;BME280;53426;55.872;37.462;2023-04-16T10:54:42;100581.66;;;20.43;10.57
66385;BME280;53426;55.872;37.462;2023-04-16T10:57:11;100562.63;;;20.28;10.59
66385;BME280;53426;55.872;37.462;2023-04-16T10:59:41;100589.50;;;19.36;10.97
66385;BME280;53426;55.872;37.462;2023-04-16T11:02:13;100569.19;;;19.68;11.20
66385;BME280;53426;55.872;37.462;2023-04-16T11:04:42;100575.00;;;18.07;11.86
66385;BME280;53426;55.872;37.462;2023-04-16T11:09:53;100557.72;;;18.19;12.33
66385;BME280;53426;55.872;37.462;2023-04-16T11:12:24;100571.91;;;17.20;12.18
66385;BME280;53426;55.872;37.462;2023-04-16T11:15:07;100573.81;;;17.00;12.62
66385;BME280;53426;55.872;37.462;2023-04-16T11:17:41;100581.97;;;16.12;12.92
66385;BME280;53426;55.872;37.462;2023-04-16T11:20:14;100578.09;;;15.36;13.66
66385;BME280;53426;55.872;37.462;2023-04-16T11:22:40;100552.16;;;14.87;13.74
66385;BME280;53426;55.872;37.462;2023-04-16T11:25:07;100569.84;;;14.67;13.92
66385;BME280;53426;55.872;37.462;2023-04-16T11:27:34;100560.72;;;14.49;14.18
66385;BME280;53426;55.872;37.462;2023-04-16T11:30:03;100558.63;;;14.52;14.08
66385;BME280;53426;55.872;37.462;2023-04-16T11:32:34;100556.88;;;14.10;14.37
66385;BME280;53426;55.872;37.462;2023-04-16T11:35:12;100552.34;;;13.90;14.57
66385;BME280;53426;55.872;37.462;2023-04-16T11:37:38;100540.78;;;13.68;15.33
66385;BME280;53426;55.872;37.462;2023-04-16T11:40:05;100551.19;;;13.38;15.41
66385;BME280;53426;55.872;37.462;2023-04-16T11:42:32;100541.41;;;13.27;15.45
66385;BME280;53426;55.872;37.462;2023-04-16T11:45:02;100543.72;;;13.32;15.77
66385;BME280;53426;55.872;37.462;2023-04-16T11:47:41;100538.63;;;13.51;15.56
66385;BME280;53426;55.872;37.462;2023-04-16T11:50:20;100540.06;;;13.55;15.62
66385;BME280;53426;55.872;37.462;2023-04-16T11:52:48;100542.97;;;13.52;15.67
66385;BME280;53426;55.872;37.462;2023-04-16T11:55:18;100519.06;;;13.41;15.26
66385;BME280;53426;55.872;37.462;2023-04-16T11:57:46;100516.63;;;13.27;15.80
66385;BME280;53426;55.872;37.462;2023-04-16T12:00:13;100531.63;;;13.39;15.74
66385;BME280;53426;55.872;37.462;2023-04-16T12:02:44;100511.16;;;13.51;15.97
66385;BME280;53426;55.872;37.462;2023-04-16T12:07:57;100525.31;;;13.62;15.64
66385;BME280;53426;55.872;37.462;2023-04-16T12:10:24;100532.66;;;13.59;15.71
66385;BME280;53426;55.872;37.462;2023-04-16T12:12:50;100493.44;;;13.29;15.27
66385;BME280;53426;55.872;37.462;2023-04-16T12:15:16;100514.72;;;13.18;15.37
66385;BME280;53426;55.872;37.462;2023-04-16T12:17:42;100479.84;;;12.98;15.56
66385;BME280;53426;55.872;37.462;2023-04-16T12:20:10;100511.78;;;13.21;16.03
66385;BME280;53426;55.872;37.462;2023-04-16T12:22:45;100508.53;;;13.28;15.94
66385;BME280;53426;55.872;37.462;2023-04-16T12:25:20;100510.34;;;13.28;16.43
66385;BME280;53426;55.872;37.462;2023-04-16T12:27:57;100454.97;;;12.99;16.52
66385;BME280;53426;55.872;37.462;2023-04-16T12:30:24;100366.09;;;12.48;16.40
66385;BME280;53426;55.872;37.462;2023-04-16T12:33:11;100412.59;;;12.76;16.34
66385;BME280;53426;55.872;37.462;2023-04-16T12:35:40;100470.81;;;13.01;16.55
66385;BME280;53426;55.872;37.462;2023-04-16T12:38:08;100490.28;;;13.24;16.32
66385;BME280;53426;55.872;37.462;2023-04-16T12:40:34;100493.19;;;13.21;16.82
66385;BME280;53426;55.872;37.462;2023-04-16T12:43:01;100472.66;;;13.12;16.89
66385;BME280;53426;55.872;37.462;2023-04-16T12:45:27;100475.03;;;13.26;16.35
66385;BME280;53426;55.872;37.462;2023-04-16T12:47:53;100472.13;;;13.40;17.07
66385;BME280;53426;55.872;37.462;2023-04-16T12:50:20;100480.31;;;13.48;16.73
66385;BME280;53426;55.872;37.462;2023-04-16T12:52:47;100491.84;;;13.26;16.44
66385;BME280;53426;55.872;37.462;2023-04-16T12:55:13;100479.56;;;13.14;16.83
66385;BME280;53426;55.872;37.462;2023-04-16T12:57:40;100456.19;;;13.07;16.54
66385;BME280;53426;55.872;37.462;2023-04-16T13:00:10;100466.38;;;13.13;16.70
66385;BME280;53426;55.872;37.462;2023-04-16T13:02:37;100469.22;;;13.10;17.19
66385;BME280;53426;55.872;37.462;2023-04-16T13:05:05;100462.09;;;13.10;16.71
66385;BME280;53426;55.872;37.462;2023-04-16T13:07:32;100445.06;;;13.02;17.41
66385;BME280;53426;55.872;37.462;2023-04-16T13:09:59;100441.66;;;13.33;17.08
66385;BME280;53426;55.872;37.462;2023-04-16T13:12:25;100446.41;;;13.29;16.84
66385;BME280;53426;55.872;37.462;2023-04-16T13:14:54;100409.56;;;13.03;16.73
66385;BME280;53426;55.872;37.462;2023-04-16T13:17:22;100423.56;;;13.16;16.87
66385;BME280;53426;55.872;37.462;2023-04-16T13:19:49;100359.56;;;12.63;16.66
66385;BME280;53426;55.872;37.462;2023-04-16T13:22:19;100387.19;;;12.94;16.55
66385;BME280;53426;55.872;37.462;2023-04-16T13:24:45;100464.63;;;13.45;16.82
66385;BME280;53426;55.872;37.462;2023-04-16T13:27:11;100431.53;;;13.16;16.34
66385;BME280;53426;55.872;37.462;2023-04-16T13:29:44;100368.28;;;12.76;16.68
66385;BME280;53426;55.872;37.462;2023-04-16T13:32:10;100345.19;;;12.66;16.84
66385;BME280;53426;55.872;37.462;2023-04-16T13:34:38;100386.34;;;12.82;17.30
66385;BME280;53426;55.872;37.462;2023-04-16T13:37:04;100422.47;;;13.07;16.71
66385;BME280;53426;55.872;37.462;2023-04-16T13:39:30;100393.63;;;12.91;17.01
66385;BME280;53426;55.872;37.462;2023-04-16T13:46:18;100425.25;;;13.28;16.48
66385;BME280;53426;55.872;37.462;2023-04-16T13:48:44;100384.91;;;12.78;16.73
66385;BME280;53426;55.872;37.462;2023-04-16T13:51:13;100351.34;;;12.55;17.04